sensor_id;sensor_type;location;lat;lon;timestamp;P1;durP1;ratioP1;P2;durP2;ratioP2
19861;SDS011;10093;48.148;8.542;2024-01-11T00:02:13;65.18;;;26.45;;
19861;SDS011;10093;48.148;8.542;2024-01-11T00:04:39;62.33;;;25.70;;
19861;SDS011;10093;48.148;8.542;2024-01-11T00:07:05;64.10;;;25.10;;
19861;SDS011;10093;48.148;8.542;2024-01-11T00:09:31;63.03;;;26.23;;
19861;SDS011;10093;48.148;8.542;2024-01-11T00:11:56;67.15;;;26.40;;
19861;SDS011;10093;48.148;8.542;2024-01-11T00:14:22;63.97;;;24.55;;
19861;SDS011;10093;48.148;8.542;2024-01-11T00:16:48;63.65;;;24.17;;
19861;SDS011;10093;48.148;8.542;2024-01-11T00:19:13;64.57;;;26.33;;
19861;SDS011;10093;48.148;8.542;2024-01-11T00:21:39;63.00;;;25.63;;
19861;SDS011;10093;48.148;8.542;2024-01-11T00:24:04;58.72;;;24.88;;
19861;SDS011;10093;48.148;8.542;2024-01-11T00:26:30;64.07;;;25.23;;
19861;SDS011;10093;48.148;8.542;2024-01-11T00:28:55;57.72;;;22.98;;
19861;SDS011;10093;48.148;8.542;2024-01-11T00:31:21;67.82;;;26.23;;
19861;SDS011;10093;48.148;8.542;2024-01-11T00:33:46;66.43;;;26.33;;
19861;SDS011;10093;48.148;8.542;2024-01-11T00:36:17;58.83;;;25.00;;
19861;SDS011;10093;48.148;8.542;2024-01-11T00:38:44;59.38;;;23.75;;
19861;SDS011;10093;48.148;8.542;2024-01-11T00:41:09;62.85;;;25.50;;
19861;SDS011;10093;48.148;8.542;2024-01-11T00:43:35;63.95;;;24.98;;
19861;SDS011;10093;48.148;8.542;2024-01-11T00:46:00;68.60;;;25.17;;
19861;SDS011;10093;48.148;8.542;2024-01-11T00:48:26;60.17;;;24.20;;
19861;SDS011;10093;48.148;8.542;2024-01-11T00:50:52;56.33;;;23.98;;
19861;SDS011;10093;48.148;8.542;2024-01-11T00:53:17;64.63;;;25.02;;
19861;SDS011;10093;48.148;8.542;2024-01-11T00:55:43;62.17;;;25.67;;
19861;SDS011;10093;48.148;8.542;2024-01-11T00:58:08;59.90;;;25.23;;
19861;SDS011;10093;48.148;8.542;2024-01-11T01:00:34;56.47;;;24.23;;
19861;SDS011;10093;48.148;8.542;2024-01-11T01:02:59;58.47;;;24.58;;
19861;SDS011;10093;48.148;8.542;2024-01-11T01:05:25;58.50;;;23.77;;
19861;SDS011;10093;48.148;8.542;2024-01-11T01:07:51;63.22;;;24.75;;
19861;SDS011;10093;48.148;8.542;2024-01-11T01:10:16;62.22;;;23.63;;
19861;SDS011;10093;48.148;8.542;2024-01-11T01:12:42;59.20;;;23.90;;
19861;SDS011;10093;48.148;8.542;2024-01-11T01:15:07;61.25;;;24.63;;
19861;SDS011;10093;48.148;8.542;2024-01-11T01:17:33;59.75;;;24.10;;
19861;SDS011;10093;48.148;8.542;2024-01-11T01:19:58;62.58;;;25.63;;
19861;SDS011;10093;48.148;8.542;2024-01-11T01:22:24;67.13;;;26.02;;
19861;SDS011;10093;48.148;8.542;2024-01-11T01:24:50;70.95;;;27.80;;
19861;SDS011;10093;48.148;8.542;2024-01-11T01:27:16;69.47;;;25.92;;
19861;SDS011;10093;48.148;8.542;2024-01-11T01:29:41;66.20;;;25.20;;
19861;SDS011;10093;48.148;8.542;2024-01-11T01:32:07;63.00;;;24.98;;
19861;SDS011;10093;48.148;8.542;2024-01-11T01:34:33;57.45;;;24.17;;
19861;SDS011;10093;48.148;8.542;2024-01-11T01:36:58;56.83;;;22.48;;
19861;SDS011;10093;48.148;8.542;2024-01-11T01:39:24;59.63;;;22.90;;
19861;SDS011;10093;48.148;8.542;2024-01-11T01:41:49;56.25;;;22.23;;
19861;SDS011;10093;48.148;8.542;2024-01-11T01:44:15;68.45;;;27.10;;
19861;SDS011;10093;48.148;8.542;2024-01-11T01:46:41;65.18;;;25.15;;
19861;SDS011;10093;48.148;8.542;2024-01-11T01:49:06;63.40;;;25.60;;
19861;SDS011;10093;48.148;8.542;2024-01-11T01:51:32;65.93;;;26.20;;
19861;SDS011;10093;48.148;8.542;2024-01-11T01:53:58;62.03;;;24.80;;
19861;SDS011;10093;48.148;8.542;2024-01-11T01:56:26;63.45;;;24.98;;
19861;SDS011;10093;48.148;8.542;2024-01-11T01:58:53;59.97;;;24.60;;
19861;SDS011;10093;48.148;8.542;2024-01-11T02:01:19;56.92;;;23.23;;
19861;SDS011;10093;48.148;8.542;2024-01-11T02:03:46;56.00;;;23.33;;
19861;SDS011;10093;48.148;8.542;2024-01-11T02:06:17;57.33;;;23.58;;
19861;SDS011;10093;48.148;8.542;2024-01-11T02:08:46;56.75;;;23.35;;
19861;SDS011;10093;48.148;8.542;2024-01-11T02:11:14;55.65;;;23.38;;
19861;SDS011;10093;48.148;8.542;2024-01-11T02:13:40;56.45;;;22.48;;
19861;SDS011;10093;48.148;8.542;2024-01-11T02:16:06;56.60;;;23.63;;
19861;SDS011;10093;48.148;8.542;2024-01-11T02:18:32;57.45;;;22.45;;
19861;SDS011;10093;48.148;8.542;2024-01-11T02:20:58;58.38;;;23.23;;
19861;SDS011;10093;48.148;8.542;2024-01-11T02:23:24;56.40;;;23.85;;
19861;SDS011;10093;48.148;8.542;2024-01-11T02:25:51;63.28;;;24.77;;
19861;SDS011;10093;48.148;8.542;2024-01-11T02:28:17;58.80;;;22.60;;
19861;SDS011;10093;48.148;8.542;2024-01-11T02:30:43;57.78;;;23.10;;
19861;SDS011;10093;48.148;8.542;2024-01-11T02:33:08;63.42;;;23.65;;
19861;SDS011;10093;48.148;8.542;2024-01-11T02:35:34;59.35;;;23.25;;
19861;SDS011;10093;48.148;8.542;2024-01-11T02:38:03;58.97;;;23.05;;
19861;SDS011;10093;48.148;8.542;2024-01-11T02:40:29;61.53;;;23.83;;
19861;SDS011;10093;48.148;8.542;2024-01-11T02:42:55;53.80;;;23.38;;
19861;SDS011;10093;48.148;8.542;2024-01-11T02:45:21;56.60;;;22.58;;
19861;SDS011;10093;48.148;8.542;2024-01-11T02:47:46;58.67;;;23.63;;
19861;SDS011;10093;48.148;8.542;2024-01-11T02:50:12;65.10;;;25.55;;
19861;SDS011;10093;48.148;8.542;2024-01-11T02:52:38;57.45;;;23.80;;
19861;SDS011;10093;48.148;8.542;2024-01-11T02:55:03;57.05;;;23.70;;
19861;SDS011;10093;48.148;8.542;2024-01-11T02:57:29;59.53;;;23.48;;
19861;SDS011;10093;48.148;8.542;2024-01-11T02:59:55;57.72;;;22.65;;
19861;SDS011;10093;48.148;8.542;2024-01-11T03:02:20;57.90;;;23.33;;
19861;SDS011;10093;48.148;8.542;2024-01-11T03:04:46;61.03;;;23.10;;
19861;SDS011;10093;48.148;8.542;2024-01-11T03:07:12;63.20;;;24.90;;
19861;SDS011;10093;48.148;8.542;2024-01-11T03:09:37;56.25;;;22.63;;
19861;SDS011;10093;48.148;8.542;2024-01-11T03:12:03;57.22;;;24.00;;
19861;SDS011;10093;48.148;8.542;2024-01-11T03:14:31;56.05;;;22.35;;
19861;SDS011;10093;48.148;8.542;2024-01-11T03:16:57;57.65;;;23.23;;
19861;SDS011;10093;48.148;8.542;2024-01-11T03:19:22;59.88;;;23.33;;
19861;SDS011;10093;48.148;8.542;2024-01-11T03:21:48;57.35;;;22.83;;
19861;SDS011;10093;48.148;8.542;2024-01-11T03:24:13;58.13;;;22.77;;
19861;SDS011;10093;48.148;8.542;2024-01-11T03:26:39;55.78;;;23.25;;
19861;SDS011;10093;48.148;8.542;2024-01-11T03:29:05;53.97;;;23.20;;
19861;SDS011;10093;48.148;8.542;2024-01-11T03:31:31;57.03;;;23.05;;
19861;SDS011;10093;48.148;8.542;2024-01-11T03:33:57;51.05;;;20.08;;
19861;SDS011;10093;48.148;8.542;2024-01-11T03:36:25;55.67;;;23.05;;
19861;SDS011;10093;48.148;8.542;2024-01-11T03:38:51;56.53;;;22.65;;
19861;SDS011;10093;48.148;8.542;2024-01-11T03:41:17;52.97;;;21.73;;
19861;SDS011;10093;48.148;8.542;2024-01-11T03:43:42;55.25;;;21.50;;
19861;SDS011;10093;48.148;8.542;2024-01-11T03:46:08;66.63;;;24.55;;
19861;SDS011;10093;48.148;8.542;2024-01-11T03:48:34;57.90;;;23.52;;
19861;SDS011;10093;48.148;8.542;2024-01-11T03:51:00;57.53;;;23.65;;
19861;SDS011;10093;48.148;8.542;2024-01-11T03:53:26;58.38;;;23.40;;
19861;SDS011;10093;48.148;8.542;2024-01-11T03:55:52;56.63;;;22.73;;
19861;SDS011;10093;48.148;8.542;2024-01-11T03:58:18;51.92;;;21.17;;
19861;SDS011;10093;48.148;8.542;2024-01-11T04:00:44;53.53;;;20.98;;
19861;SDS011;10093;48.148;8.542;2024-01-11T04:03:09;55.90;;;22.58;;
19861;SDS011;10093;48.148;8.542;2024-01-11T04:05:35;51.42;;;21.92;;
19861;SDS011;10093;48.148;8.542;2024-01-11T04:08:05;55.00;;;22.05;;
19861;SDS011;10093;48.148;8.542;2024-01-11T04:10:31;60.03;;;23.83;;
19861;SDS011;10093;48.148;8.542;2024-01-11T04:12:57;61.45;;;24.42;;
19861;SDS011;10093;48.148;8.542;2024-01-11T04:15:23;59.92;;;23.48;;
19861;SDS011;10093;48.148;8.542;2024-01-11T04:17:48;62.17;;;23.23;;
19861;SDS011;10093;48.148;8.542;2024-01-11T04:20:14;55.88;;;21.67;;
19861;SDS011;10093;48.148;8.542;2024-01-11T04:22:39;54.78;;;21.45;;
19861;SDS011;10093;48.148;8.542;2024-01-11T04:25:05;51.15;;;21.88;;
19861;SDS011;10093;48.148;8.542;2024-01-11T04:27:32;62.55;;;24.00;;
19861;SDS011;10093;48.148;8.542;2024-01-11T04:29:57;55.15;;;21.63;;
19861;SDS011;10093;48.148;8.542;2024-01-11T04:32:23;55.95;;;22.48;;
19861;SDS011;10093;48.148;8.542;2024-01-11T04:34:48;55.00;;;20.90;;
19861;SDS011;10093;48.148;8.542;2024-01-11T04:37:14;50.45;;;20.52;;
19861;SDS011;10093;48.148;8.542;2024-01-11T04:39:40;55.60;;;22.08;;
19861;SDS011;10093;48.148;8.542;2024-01-11T04:42:05;54.13;;;22.02;;
19861;SDS011;10093;48.148;8.542;2024-01-11T04:44:31;56.53;;;23.00;;
19861;SDS011;10093;48.148;8.542;2024-01-11T04:46:56;50.20;;;20.90;;
19861;SDS011;10093;48.148;8.542;2024-01-11T04:49:22;57.55;;;21.27;;
19861;SDS011;10093;48.148;8.542;2024-01-11T04:51:48;52.65;;;20.17;;
19861;SDS011;10093;48.148;8.542;2024-01-11T04:54:14;68.75;;;26.42;;
19861;SDS011;10093;48.148;8.542;2024-01-11T04:56:39;67.65;;;27.70;;
19861;SDS011;10093;48.148;8.542;2024-01-11T04:59:05;58.25;;;22.95;;
19861;SDS011;10093;48.148;8.542;2024-01-11T05:01:30;52.67;;;21.85;;
19861;SDS011;10093;48.148;8.542;2024-01-11T05:03:56;47.40;;;19.50;;
19861;SDS011;10093;48.148;8.542;2024-01-11T05:06:22;50.25;;;20.65;;
19861;SDS011;10093;48.148;8.542;2024-01-11T05:08:50;55.70;;;21.52;;
19861;SDS011;10093;48.148;8.542;2024-01-11T05:11:20;49.90;;;20.20;;
19861;SDS011;10093;48.148;8.542;2024-01-11T05:13:48;54.33;;;20.70;;
19861;SDS011;10093;48.148;8.542;2024-01-11T05:18:44;55.38;;;21.27;;
19861;SDS011;10093;48.148;8.542;2024-01-11T05:21:10;53.45;;;21.20;;
19861;SDS011;10093;48.148;8.542;2024-01-11T05:23:35;54.97;;;21.48;;
19861;SDS011;10093;48.148;8.542;2024-01-11T05:26:01;59.33;;;22.92;;
19861;SDS011;10093;48.148;8.542;2024-01-11T05:28:27;70.07;;;29.15;;
19861;SDS011;10093;48.148;8.542;2024-01-11T05:30:53;70.30;;;27.00;;
19861;SDS011;10093;48.148;8.542;2024-01-11T05:33:19;67.38;;;26.85;;
19861;SDS011;10093;48.148;8.542;2024-01-11T05:35:45;67.03;;;26.17;;
19861;SDS011;10093;48.148;8.542;2024-01-11T05:38:10;66.68;;;25.63;;
19861;SDS011;10093;48.148;8.542;2024-01-11T05:40:36;80.47;;;30.52;;
19861;SDS011;10093;48.148;8.542;2024-01-11T05:43:02;61.97;;;25.48;;
19861;SDS011;10093;48.148;8.542;2024-01-11T05:45:27;79.35;;;30.85;;
19861;SDS011;10093;48.148;8.542;2024-01-11T05:47:53;63.08;;;24.88;;
19861;SDS011;10093;48.148;8.542;2024-01-11T05:50:19;58.47;;;24.20;;
19861;SDS011;10093;48.148;8.542;2024-01-11T05:52:47;59.65;;;24.75;;
19861;SDS011;10093;48.148;8.542;2024-01-11T05:55:13;84.82;;;34.45;;
19861;SDS011;10093;48.148;8.542;2024-01-11T05:57:39;66.95;;;27.85;;
19861;SDS011;10093;48.148;8.542;2024-01-11T06:00:05;61.80;;;25.65;;
19861;SDS011;10093;48.148;8.542;2024-01-11T06:02:31;69.13;;;25.65;;
19861;SDS011;10093;48.148;8.542;2024-01-11T06:04:56;60.38;;;23.92;;
19861;SDS011;10093;48.148;8.542;2024-01-11T06:07:25;54.50;;;22.63;;
19861;SDS011;10093;48.148;8.542;2024-01-11T06:09:50;54.83;;;23.17;;
19861;SDS011;10093;48.148;8.542;2024-01-11T06:12:16;60.28;;;24.40;;
19861;SDS011;10093;48.148;8.542;2024-01-11T06:14:42;60.88;;;23.67;;
19861;SDS011;10093;48.148;8.542;2024-01-11T06:17:08;60.95;;;23.98;;
19861;SDS011;10093;48.148;8.542;2024-01-11T06:19:36;62.05;;;24.58;;
19861;SDS011;10093;48.148;8.542;2024-01-11T06:22:02;63.08;;;23.08;;
19861;SDS011;10093;48.148;8.542;2024-01-11T06:24:28;57.25;;;23.45;;
19861;SDS011;10093;48.148;8.542;2024-01-11T06:26:54;62.25;;;25.48;;
19861;SDS011;10093;48.148;8.542;2024-01-11T06:29:19;63.13;;;25.10;;
19861;SDS011;10093;48.148;8.542;2024-01-11T06:31:45;62.22;;;25.33;;
19861;SDS011;10093;48.148;8.542;2024-01-11T06:34:11;58.35;;;23.75;;
19861;SDS011;10093;48.148;8.542;2024-01-11T06:36:37;57.95;;;22.50;;
19861;SDS011;10093;48.148;8.542;2024-01-11T06:39:02;53.80;;;21.27;;
19861;SDS011;10093;48.148;8.542;2024-01-11T06:41:29;57.97;;;21.60;;
19861;SDS011;10093;48.148;8.542;2024-01-11T06:43:54;57.35;;;21.05;;
19861;SDS011;10093;48.148;8.542;2024-01-11T06:46:20;49.95;;;20.50;;
19861;SDS011;10093;48.148;8.542;2024-01-11T06:48:47;51.45;;;19.92;;
19861;SDS011;10093;48.148;8.542;2024-01-11T06:51:14;57.55;;;21.92;;
19861;SDS011;10093;48.148;8.542;2024-01-11T06:53:40;61.78;;;24.55;;
19861;SDS011;10093;48.148;8.542;2024-01-11T06:56:19;56.80;;;22.30;;
19861;SDS011;10093;48.148;8.542;2024-01-11T06:58:46;51.85;;;20.73;;
19861;SDS011;10093;48.148;8.542;2024-01-11T07:01:12;60.95;;;22.08;;
19861;SDS011;10093;48.148;8.542;2024-01-11T07:03:38;51.72;;;21.20;;
19861;SDS011;10093;48.148;8.542;2024-01-11T07:06:04;54.47;;;22.42;;
19861;SDS011;10093;48.148;8.542;2024-01-11T07:08:30;51.33;;;20.30;;
19861;SDS011;10093;48.148;8.542;2024-01-11T07:10:57;56.55;;;22.20;;
19861;SDS011;10093;48.148;8.542;2024-01-11T07:13:23;58.05;;;22.38;;
19861;SDS011;10093;48.148;8.542;2024-01-11T07:15:49;59.17;;;22.48;;
19861;SDS011;10093;48.148;8.542;2024-01-11T07:18:16;54.33;;;21.83;;
19861;SDS011;10093;48.148;8.542;2024-01-11T07:20:42;53.67;;;21.35;;
19861;SDS011;10093;48.148;8.542;2024-01-11T07:23:08;58.97;;;21.60;;
19861;SDS011;10093;48.148;8.542;2024-01-11T07:25:34;64.20;;;23.50;;
19861;SDS011;10093;48.148;8.542;2024-01-11T07:28:00;58.72;;;22.52;;
19861;SDS011;10093;48.148;8.542;2024-01-11T07:30:26;53.38;;;21.35;;
19861;SDS011;10093;48.148;8.542;2024-01-11T07:32:52;64.80;;;25.02;;
19861;SDS011;10093;48.148;8.542;2024-01-11T07:35:17;61.78;;;24.50;;
19861;SDS011;10093;48.148;8.542;2024-01-11T07:37:43;66.22;;;25.38;;
19861;SDS011;10093;48.148;8.542;2024-01-11T07:40:09;68.80;;;26.10;;
19861;SDS011;10093;48.148;8.542;2024-01-11T07:42:39;56.22;;;23.83;;
19861;SDS011;10093;48.148;8.542;2024-01-11T07:45:05;64.88;;;24.50;;
19861;SDS011;10093;48.148;8.542;2024-01-11T07:47:32;64.78;;;26.33;;
19861;SDS011;10093;48.148;8.542;2024-01-11T07:49:58;70.57;;;27.17;;
19861;SDS011;10093;48.148;8.542;2024-01-11T07:52:24;78.35;;;29.75;;
19861;SDS011;10093;48.148;8.542;2024-01-11T07:54:50;77.43;;;28.35;;
19861;SDS011;10093;48.148;8.542;2024-01-11T07:57:15;66.53;;;26.27;;
19861;SDS011;10093;48.148;8.542;2024-01-11T07:59:41;66.28;;;25.85;;
19861;SDS011;10093;48.148;8.542;2024-01-11T08:02:07;68.72;;;26.65;;
19861;SDS011;10093;48.148;8.542;2024-01-11T08:04:32;116.25;;;46.47;;
19861;SDS011;10093;48.148;8.542;2024-01-11T08:06:58;85.68;;;33.30;;
19861;SDS011;10093;48.148;8.542;2024-01-11T08:09:27;72.57;;;28.38;;
19861;SDS011;10093;48.148;8.542;2024-01-11T08:11:53;73.47;;;28.73;;
19861;SDS011;10093;48.148;8.542;2024-01-11T08:14:19;71.82;;;28.90;;
19861;SDS011;10093;48.148;8.542;2024-01-11T08:16:46;70.40;;;28.48;;
19861;SDS011;10093;48.148;8.542;2024-01-11T08:19:11;74.20;;;27.75;;
19861;SDS011;10093;48.148;8.542;2024-01-11T08:21:40;64.13;;;26.65;;
19861;SDS011;10093;48.148;8.542;2024-01-11T08:24:06;136.15;;;52.05;;
19861;SDS011;10093;48.148;8.542;2024-01-11T08:26:32;67.00;;;25.52;;
19861;SDS011;10093;48.148;8.542;2024-01-11T08:28:58;79.32;;;32.90;;
19861;SDS011;10093;48.148;8.542;2024-01-11T08:31:24;87.80;;;37.55;;
19861;SDS011;10093;48.148;8.542;2024-01-11T08:33:50;76.15;;;31.65;;
19861;SDS011;10093;48.148;8.542;2024-01-11T08:36:15;101.95;;;43.25;;
19861;SDS011;10093;48.148;8.542;2024-01-11T08:38:41;86.40;;;36.08;;
19861;SDS011;10093;48.148;8.542;2024-01-11T08:41:07;70.95;;;29.85;;
19861;SDS011;10093;48.148;8.542;2024-01-11T08:43:32;150.00;;;68.78;;
19861;SDS011;10093;48.148;8.542;2024-01-11T08:45:58;89.13;;;37.05;;
19861;SDS011;10093;48.148;8.542;2024-01-11T08:48:24;92.20;;;37.33;;
19861;SDS011;10093;48.148;8.542;2024-01-11T08:50:50;98.68;;;38.75;;
19861;SDS011;10093;48.148;8.542;2024-01-11T08:53:15;98.45;;;39.67;;
19861;SDS011;10093;48.148;8.542;2024-01-11T08:55:41;107.88;;;45.53;;
19861;SDS011;10093;48.148;8.542;2024-01-11T08:58:07;114.72;;;44.70;;
19861;SDS011;10093;48.148;8.542;2024-01-11T09:00:33;112.03;;;43.63;;
19861;SDS011;10093;48.148;8.542;2024-01-11T09:02:59;116.68;;;46.97;;
19861;SDS011;10093;48.148;8.542;2024-01-11T09:05:24;134.23;;;51.30;;
19861;SDS011;10093;48.148;8.542;2024-01-11T09:07:50;143.07;;;59.92;;
19861;SDS011;10093;48.148;8.542;2024-01-11T09:10:15;188.60;;;83.82;;
19861;SDS011;10093;48.148;8.542;2024-01-11T09:12:41;100.45;;;39.58;;
19861;SDS011;10093;48.148;8.542;2024-01-11T09:15:07;115.30;;;43.92;;
19861;SDS011;10093;48.148;8.542;2024-01-11T09:17:33;133.60;;;50.30;;
19861;SDS011;10093;48.148;8.542;2024-01-11T09:19:58;133.15;;;50.75;;
19861;SDS011;10093;48.148;8.542;2024-01-11T09:22:24;126.07;;;46.90;;
19861;SDS011;10093;48.148;8.542;2024-01-11T09:24:50;125.57;;;53.65;;
19861;SDS011;10093;48.148;8.542;2024-01-11T09:27:17;129.93;;;53.55;;
19861;SDS011;10093;48.148;8.542;2024-01-11T09:29:43;110.05;;;44.15;;
19861;SDS011;10093;48.148;8.542;2024-01-11T09:32:09;102.38;;;41.47;;
19861;SDS011;10093;48.148;8.542;2024-01-11T09:34:35;116.40;;;44.45;;
19861;SDS011;10093;48.148;8.542;2024-01-11T09:37:00;101.63;;;41.38;;
19861;SDS011;10093;48.148;8.542;2024-01-11T09:39:26;120.07;;;46.22;;
19861;SDS011;10093;48.148;8.542;2024-01-11T09:42:13;140.65;;;50.42;;
19861;SDS011;10093;48.148;8.542;2024-01-11T09:44:38;162.98;;;54.45;;
19861;SDS011;10093;48.148;8.542;2024-01-11T09:47:05;213.20;;;65.03;;
19861;SDS011;10093;48.148;8.542;2024-01-11T09:49:32;244.50;;;72.68;;
19861;SDS011;10093;48.148;8.542;2024-01-11T09:51:59;160.25;;;55.80;;
19861;SDS011;10093;48.148;8.542;2024-01-11T09:54:26;155.13;;;55.28;;
19861;SDS011;10093;48.148;8.542;2024-01-11T09:56:52;163.02;;;56.25;;
19861;SDS011;10093;48.148;8.542;2024-01-11T09:59:20;132.52;;;50.13;;
19861;SDS011;10093;48.148;8.542;2024-01-11T10:01:49;134.02;;;53.60;;
19861;SDS011;10093;48.148;8.542;2024-01-11T10:04:16;116.45;;;43.78;;
19861;SDS011;10093;48.148;8.542;2024-01-11T10:06:41;114.82;;;47.28;;
19861;SDS011;10093;48.148;8.542;2024-01-11T10:09:08;111.20;;;44.88;;
19861;SDS011;10093;48.148;8.542;2024-01-11T10:11:34;122.55;;;50.55;;
19861;SDS011;10093;48.148;8.542;2024-01-11T10:14:00;91.85;;;38.45;;
19861;SDS011;10093;48.148;8.542;2024-01-11T10:16:27;112.18;;;46.10;;
19861;SDS011;10093;48.148;8.542;2024-01-11T10:18:56;116.75;;;51.92;;
19861;SDS011;10093;48.148;8.542;2024-01-11T10:21:22;80.70;;;35.80;;
19861;SDS011;10093;48.148;8.542;2024-01-11T10:23:49;93.65;;;37.20;;
19861;SDS011;10093;48.148;8.542;2024-01-11T10:26:15;85.07;;;36.05;;
19861;SDS011;10093;48.148;8.542;2024-01-11T10:28:44;197.27;;;97.70;;
19861;SDS011;10093;48.148;8.542;2024-01-11T10:31:10;93.47;;;41.55;;
19861;SDS011;10093;48.148;8.542;2024-01-11T10:33:36;86.03;;;36.22;;
19861;SDS011;10093;48.148;8.542;2024-01-11T10:36:02;86.57;;;35.97;;
19861;SDS011;10093;48.148;8.542;2024-01-11T10:38:30;89.70;;;38.17;;
19861;SDS011;10093;48.148;8.542;2024-01-11T10:40:56;88.30;;;36.78;;
19861;SDS011;10093;48.148;8.542;2024-01-11T10:43:26;84.80;;;35.58;;
19861;SDS011;10093;48.148;8.542;2024-01-11T10:45:54;82.32;;;35.05;;
19861;SDS011;10093;48.148;8.542;2024-01-11T10:48:24;81.57;;;34.65;;
19861;SDS011;10093;48.148;8.542;2024-01-11T10:50:58;83.18;;;35.80;;
19861;SDS011;10093;48.148;8.542;2024-01-11T10:53:36;81.18;;;35.30;;
19861;SDS011;10093;48.148;8.542;2024-01-11T10:56:05;75.82;;;33.15;;
19861;SDS011;10093;48.148;8.542;2024-01-11T10:58:34;75.85;;;34.33;;
19861;SDS011;10093;48.148;8.542;2024-01-11T11:01:00;88.15;;;38.38;;
19861;SDS011;10093;48.148;8.542;2024-01-11T11:03:27;77.70;;;34.83;;
19861;SDS011;10093;48.148;8.542;2024-01-11T11:05:55;65.97;;;31.10;;
19861;SDS011;10093;48.148;8.542;2024-01-11T11:08:23;70.05;;;33.17;;
19861;SDS011;10093;48.148;8.542;2024-01-11T11:10:56;70.80;;;32.97;;
19861;SDS011;10093;48.148;8.542;2024-01-11T11:13:22;69.38;;;32.33;;
19861;SDS011;10093;48.148;8.542;2024-01-11T11:15:49;61.58;;;28.75;;
19861;SDS011;10093;48.148;8.542;2024-01-11T11:18:15;70.07;;;32.08;;
19861;SDS011;10093;48.148;8.542;2024-01-11T11:20:41;70.97;;;33.28;;
19861;SDS011;10093;48.148;8.542;2024-01-11T11:23:08;67.93;;;31.45;;
19861;SDS011;10093;48.148;8.542;2024-01-11T11:25:42;66.50;;;30.75;;
19861;SDS011;10093;48.148;8.542;2024-01-11T11:28:11;64.88;;;29.92;;
19861;SDS011;10093;48.148;8.542;2024-01-11T11:30:38;64.35;;;30.17;;
19861;SDS011;10093;48.148;8.542;2024-01-11T11:35:43;70.85;;;31.55;;
19861;SDS011;10093;48.148;8.542;2024-01-11T11:38:16;88.15;;;38.80;;
19861;SDS011;10093;48.148;8.542;2024-01-11T11:40:47;66.50;;;30.42;;
19861;SDS011;10093;48.148;8.542;2024-01-11T11:43:15;65.28;;;32.03;;
19861;SDS011;10093;48.148;8.542;2024-01-11T11:45:42;66.95;;;30.00;;
19861;SDS011;10093;48.148;8.542;2024-01-11T11:51:07;77.65;;;36.47;;
19861;SDS011;10093;48.148;8.542;2024-01-11T11:53:37;67.95;;;30.65;;
19861;SDS011;10093;48.148;8.542;2024-01-11T11:56:04;74.95;;;34.90;;
19861;SDS011;10093;48.148;8.542;2024-01-11T11:58:33;67.38;;;30.65;;
19861;SDS011;10093;48.148;8.542;2024-01-11T12:00:59;61.03;;;29.40;;
19861;SDS011;10093;48.148;8.542;2024-01-11T12:03:29;60.00;;;29.40;;
19861;SDS011;10093;48.148;8.542;2024-01-11T12:06:02;64.68;;;29.95;;
19861;SDS011;10093;48.148;8.542;2024-01-11T12:08:28;68.22;;;31.88;;
19861;SDS011;10093;48.148;8.542;2024-01-11T12:10:55;85.95;;;44.15;;
19861;SDS011;10093;48.148;8.542;2024-01-11T12:13:21;78.90;;;39.50;;
19861;SDS011;10093;48.148;8.542;2024-01-11T12:15:47;67.00;;;31.77;;
19861;SDS011;10093;48.148;8.542;2024-01-11T12:18:13;64.78;;;31.83;;
19861;SDS011;10093;48.148;8.542;2024-01-11T12:20:38;60.10;;;29.33;;
19861;SDS011;10093;48.148;8.542;2024-01-11T12:23:04;64.85;;;31.00;;
19861;SDS011;10093;48.148;8.542;2024-01-11T12:25:30;64.60;;;30.45;;
19861;SDS011;10093;48.148;8.542;2024-01-11T12:27:56;65.18;;;32.47;;
19861;SDS011;10093;48.148;8.542;2024-01-11T12:30:23;72.57;;;34.10;;
19861;SDS011;10093;48.148;8.542;2024-01-11T12:32:49;75.63;;;34.58;;
19861;SDS011;10093;48.148;8.542;2024-01-11T12:35:16;86.40;;;37.88;;
19861;SDS011;10093;48.148;8.542;2024-01-11T12:38:03;75.18;;;36.15;;
19861;SDS011;10093;48.148;8.542;2024-01-11T12:40:34;85.43;;;38.67;;
19861;SDS011;10093;48.148;8.542;2024-01-11T12:43:02;87.85;;;40.67;;
19861;SDS011;10093;48.148;8.542;2024-01-11T12:45:28;94.05;;;42.03;;
19861;SDS011;10093;48.148;8.542;2024-01-11T12:47:54;99.93;;;44.15;;
19861;SDS011;10093;48.148;8.542;2024-01-11T12:50:22;107.35;;;43.85;;
19861;SDS011;10093;48.148;8.542;2024-01-11T12:53:09;101.63;;;43.40;;
19861;SDS011;10093;48.148;8.542;2024-01-11T12:55:46;90.93;;;39.37;;
19861;SDS011;10093;48.148;8.542;2024-01-11T12:58:12;96.75;;;39.28;;
19861;SDS011;10093;48.148;8.542;2024-01-11T13:00:39;90.38;;;40.78;;
19861;SDS011;10093;48.148;8.542;2024-01-11T13:03:05;90.57;;;37.65;;
19861;SDS011;10093;48.148;8.542;2024-01-11T13:05:31;85.13;;;35.90;;
19861;SDS011;10093;48.148;8.542;2024-01-11T13:08:01;89.18;;;38.28;;
19861;SDS011;10093;48.148;8.542;2024-01-11T13:10:28;94.82;;;37.65;;
19861;SDS011;10093;48.148;8.542;2024-01-11T13:12:54;86.05;;;37.47;;
19861;SDS011;10093;48.148;8.542;2024-01-11T13:15:20;82.00;;;36.63;;
19861;SDS011;10093;48.148;8.542;2024-01-11T13:17:46;94.80;;;40.33;;
19861;SDS011;10093;48.148;8.542;2024-01-11T13:20:12;91.38;;;40.45;;
19861;SDS011;10093;48.148;8.542;2024-01-11T13:22:38;88.45;;;39.75;;
19861;SDS011;10093;48.148;8.542;2024-01-11T13:25:04;86.50;;;37.05;;
19861;SDS011;10093;48.148;8.542;2024-01-11T13:27:29;82.63;;;35.65;;
19861;SDS011;10093;48.148;8.542;2024-01-11T13:29:56;83.68;;;36.13;;
19861;SDS011;10093;48.148;8.542;2024-01-11T13:32:23;100.35;;;43.08;;
19861;SDS011;10093;48.148;8.542;2024-01-11T13:34:48;86.57;;;37.67;;
19861;SDS011;10093;48.148;8.542;2024-01-11T13:37:18;91.75;;;38.08;;
19861;SDS011;10093;48.148;8.542;2024-01-11T13:39:44;80.32;;;35.25;;
19861;SDS011;10093;48.148;8.542;2024-01-11T13:42:09;76.63;;;34.70;;
19861;SDS011;10093;48.148;8.542;2024-01-11T13:44:35;73.45;;;34.60;;
19861;SDS011;10093;48.148;8.542;2024-01-11T13:47:01;71.97;;;32.95;;
19861;SDS011;10093;48.148;8.542;2024-01-11T13:49:28;72.15;;;32.25;;
19861;SDS011;10093;48.148;8.542;2024-01-11T13:51:53;72.20;;;33.03;;
19861;SDS011;10093;48.148;8.542;2024-01-11T13:54:19;74.80;;;34.00;;
19861;SDS011;10093;48.148;8.542;2024-01-11T13:56:46;64.28;;;30.90;;
19861;SDS011;10093;48.148;8.542;2024-01-11T13:59:12;65.63;;;32.30;;
19861;SDS011;10093;48.148;8.542;2024-01-11T14:01:38;64.28;;;31.17;;
19861;SDS011;10093;48.148;8.542;2024-01-11T14:04:03;61.30;;;31.10;;
19861;SDS011;10093;48.148;8.542;2024-01-11T14:06:29;63.20;;;30.55;;
19861;SDS011;10093;48.148;8.542;2024-01-11T14:08:55;59.17;;;29.80;;
19861;SDS011;10093;48.148;8.542;2024-01-11T14:11:20;56.08;;;29.90;;
19861;SDS011;10093;48.148;8.542;2024-01-11T14:13:46;59.63;;;30.45;;
19861;SDS011;10093;48.148;8.542;2024-01-11T14:16:12;60.05;;;30.55;;
19861;SDS011;10093;48.148;8.542;2024-01-11T14:18:39;103.65;;;49.38;;
19861;SDS011;10093;48.148;8.542;2024-01-11T14:21:05;68.85;;;34.88;;
19861;SDS011;10093;48.148;8.542;2024-01-11T14:23:30;72.88;;;37.17;;
19861;SDS011;10093;48.148;8.542;2024-01-11T14:25:56;75.40;;;37.38;;